Time;durP1;ratioP1;P1;durP2;ratioP2;P2;SDS_P1;SDS_P2;PMS_P1;PMS_P2;Temp;Humidity;BMP_temperature;BMP_pressure;BME280_temperature;BME280_humidity;BME280_pressure;Samples;Min_cycle;Max_cycle;Signal;HPM_P1;HPM_P2
2023/09/05 02:43:37;;;;;;;12.40;6.10;;;;;;;14.46;89.96;100240.23;107124;1311;544949;-46
2023/09/05 02:46:02;;;;;;;13.20;5.50;;;;;;;14.42;89.83;100238.49;107434;1312;22353;-46
2023/09/05 02:48:28;;;;;;;14.10;6.40;;;;;;;14.42;89.64;100238.87;107464;1312;23336;-49
2023/09/05 02:51:08;;;;;;;16.30;6.70;;;;;;;14.42;89.37;100236.25;107454;1312;22443;-45
2023/09/05 02:53:34;;;;;;;23.10;7.80;;;;;;;14.41;89.62;100231.85;107449;1312;22332;-48
2023/09/05 02:56:00;;;;;;;13.10;6.70;;;;;;;14.40;89.96;100230.83;107432;1312;22251;-48
2023/09/05 02:58:28;;;;;;;17.00;6.90;;;;;;;14.40;89.74;100229.44;107873;1307;148540;-46
2023/09/05 03:01:05;;;;;;;12.90;6.90;;;;;;;14.40;89.74;100229.64;108007;1307;22971;-46
2023/09/05 03:03:30;;;;;;;20.20;7.00;;;;;;;14.38;90.16;100227.58;108013;1307;22239;-45
2023/09/05 03:05:56;;;;;;;15.40;7.20;;;;;;;14.38;90.10;100230.27;108005;1307;22260;-44
2023/09/05 03:08:22;;;;;;;12.20;7.00;;;;;;;14.37;90.02;100228.73;108003;1307;23110;-42
2023/09/05 03:10:51;;;;;;;11.80;6.80;;;;;;;14.36;90.20;100228.44;107981;1307;22315;-44
2023/09/05 03:13:17;;;;;;;16.10;7.10;;;;;;;14.35;90.73;100230.42;107975;1307;22448;-45
2023/09/05 03:15:42;;;;;;;15.10;7.10;;;;;;;14.35;90.15;100231.86;107986;1307;22396;-46
2023/09/05 03:18:07;;;;;;;12.20;6.90;;;;;;;14.33;90.28;100239.88;107956;1307;22223;-47
2023/09/05 03:20:32;;;;;;;16.70;7.50;;;;;;;14.33;89.97;100243.60;108003;1307;23066;-49
2023/09/05 03:22:58;;;;;;;13.50;6.70;;;;;;;14.31;89.87;100245.11;107917;1294;22141;-47
2023/09/05 03:25:23;;;;;;;17.10;7.00;;;;;;;14.30;90.15;100245.91;107994;1307;22691;-47
2023/09/05 03:27:48;;;;;;;16.30;7.10;;;;;;;14.29;90.36;100244.20;107984;1288;22484;-45
2023/09/05 03:30:13;;;;;;;17.10;7.10;;;;;;;14.28;90.55;100242.98;107975;1307;22210;-40
2023/09/05 03:32:39;;;;;;;18.00;7.20;;;;;;;14.27;90.71;100237.42;107978;1307;23393;-45
2023/09/05 03:35:05;;;;;;;15.90;7.00;;;;;;;14.25;90.66;100236.64;107995;1307;22457;-46
2023/09/05 03:37:30;;;;;;;11.80;6.40;;;;;;;14.26;91.20;100238.37;107992;1307;22222;-55
2023/09/05 03:39:56;;;;;;;15.40;7.80;;;;;;;14.25;90.46;100236.12;107963;1301;22209;-51
2023/09/05 03:42:22;;;;;;;11.40;6.30;;;;;;;14.25;90.31;100240.73;107979;1292;22246;-51
2023/09/05 03:44:47;;;;;;;12.40;6.80;;;;;;;14.22;90.42;100245.45;107976;1307;22413;-42
2023/09/05 03:47:12;;;;;;;15.70;6.40;;;;;;;14.19;90.05;100247.33;108326;1304;22444;-44
2023/09/05 03:49:38;;;;;;;16.40;7.00;;;;;;;14.20;90.11;100248.55;108297;1304;22209;-44
2023/09/05 03:52:03;;;;;;;17.70;6.70;;;;;;;14.19;90.38;100250.19;108330;1304;22088;-46
2023/09/05 03:54:28;;;;;;;19.50;7.30;;;;;;;14.18;90.40;100248.67;108262;1304;22387;-46
2023/09/05 03:56:54;;;;;;;13.90;6.90;;;;;;;14.17;90.48;100246.77;108340;1299;22268;-45
2023/09/05 03:59:19;;;;;;;17.90;7.40;;;;;;;14.16;90.27;100251.03;108328;1303;22216;-43
2023/09/05 04:01:48;;;;;;;15.30;6.40;;;;;;;14.14;90.33;100248.67;108359;1303;22427;-50
2023/09/05 04:04:13;;;;;;;17.60;7.20;;;;;;;14.14;90.45;100253.28;108359;1303;22971;-42
2023/09/05 04:06:38;;;;;;;18.80;6.90;;;;;;;14.13;90.83;100258.45;108353;1303;22198;-46
2023/09/05 04:09:04;;;;;;;17.20;7.00;;;;;;;14.12;91.14;100256.92;108343;1303;23095;-50
2023/09/05 04:11:29;;;;;;;14.00;6.40;;;;;;;14.12;90.97;100259.19;108249;1279;22238;-53
2023/09/05 04:13:54;;;;;;;23.00;7.40;;;;;;;14.13;90.82;100262.68;108204;1305;23099;-53
2023/09/05 04:16:19;;;;;;;24.70;7.90;;;;;;;14.13;90.87;100265.29;108162;1305;22133;-44
2023/09/05 04:18:45;;;;;;;15.00;6.90;;;;;;;14.13;90.38;100262.16;108187;1305;22400;-51
2023/09/05 04:21:11;;;;;;;19.80;6.60;;;;;;;14.12;90.67;100263.94;108182;1288;22490;-47
2023/09/05 04:23:36;;;;;;;20.30;7.30;;;;;;;14.13;90.53;100267.42;108171;1305;22899;-46
2023/09/05 04:26:02;;;;;;;16.20;7.10;;;;;;;14.14;90.71;100266.14;108158;1305;22254;-46
2023/09/05 04:28:27;;;;;;;14.30;7.30;;;;;;;14.14;90.99;100263.13;108166;1305;22516;-46
2023/09/05 04:30:55;;;;;;;18.90;7.50;;;;;;;14.15;90.97;100266.44;108163;1305;23393;-52
2023/09/05 04:33:31;;;;;;;16.30;7.10;;;;;;;14.16;90.79;100269.59;108182;1305;22402;-52
2023/09/05 04:35:56;;;;;;;20.80;7.30;;;;;;;14.17;90.71;100265.65;108046;1305;22258;-47
2023/09/05 04:38:22;;;;;;;16.00;6.70;;;;;;;14.19;90.43;100263.43;108144;1305;22350;-47
2023/09/05 04:40:47;;;;;;;19.60;7.10;;;;;;;14.20;90.54;100266.52;108187;1305;22354;-46
2023/09/05 04:43:12;;;;;;;13.60;6.70;;;;;;;14.23;90.37;100265.70;108162;1305;22352;-49
2023/09/05 04:45:37;;;;;;;13.60;7.10;;;;;;;14.25;90.39;100268.05;108178;1282;23000;-45
2023/09/05 04:48:03;;;;;;;16.80;7.20;;;;;;;14.26;90.50;100268.34;108186;1285;22216;-46
2023/09/05 04:50:28;;;;;;;17.60;7.40;;;;;;;14.27;90.46;100266.38;108176;1305;22260;-51
2023/09/05 04:52:53;;;;;;;15.80;6.30;;;;;;;14.29;90.45;100271.15;108188;1305;22231;-46
2023/09/05 04:55:19;;;;;;;14.00;6.80;;;;;;;14.32;90.34;100275.24;108145;1305;23145;-46
2023/09/05 04:57:44;;;;;;;11.90;6.20;;;;;;;14.34;90.51;100276.73;108179;1305;22311;-40
2023/09/05 05:00:13;;;;;;;19.40;7.10;;;;;;;14.37;90.12;100276.67;108153;1305;22321;-48
2023/09/05 05:02:39;;;;;;;20.30;6.70;;;;;;;14.41;89.91;100283.20;108195;1305;22920;-44
2023/09/05 05:05:06;;;;;;;15.00;6.80;;;;;;;14.45;89.53;100279.96;108170;1305;23040;-52
2023/09/05 05:07:32;;;;;;;19.20;6.80;;;;;;;14.49;89.53;100276.77;108196;1305;22312;-49
2023/09/05 05:09:57;;;;;;;13.10;6.70;;;;;;;14.52;89.11;100277.98;108193;1305;22868;-47
2023/09/05 05:12:23;;;;;;;12.20;6.10;;;;;;;14.56;88.69;100283.44;108167;1305;22222;-49
2023/09/05 05:14:48;;;;;;;14.20;6.40;;;;;;;14.59;88.72;100285.57;108199;1305;23000;-48
2023/09/05 05:17:14;;;;;;;12.70;6.10;;;;;;;14.63;88.36;100289.76;108168;1305;22233;-49
2023/09/05 05:19:40;;;;;;;18.90;6.60;;;;;;;14.67;88.47;100291.83;108152;1305;22413;-46
2023/09/05 05:22:05;;;;;;;24.60;6.90;;;;;;;14.71;88.28;100291.30;108183;1305;23018;-47
2023/09/05 05:24:31;;;;;;;15.20;6.10;;;;;;;14.74;88.01;100292.54;108180;1305;22423;-51
2023/09/05 05:26:57;;;;;;;17.10;6.50;;;;;;;14.76;88.00;100293.43;108170;1305;22203;-43
2023/09/05 05:29:22;;;;;;;24.60;6.80;;;;;;;14.81;88.08;100294.23;107995;1305;22962;-47
2023/09/05 05:31:48;;;;;;;15.50;6.10;;;;;;;14.84;87.72;100286.33;108166;1305;22249;-44
2023/09/05 05:34:14;;;;;;;15.70;5.40;;;;;;;14.88;87.57;100286.77;108190;1305;23034;-46
2023/09/05 05:36:39;;;;;;;14.10;5.90;;;;;;;14.91;87.01;100284.83;108182;1305;23117;-48
2023/09/05 05:39:04;;;;;;;24.40;6.40;;;;;;;14.95;86.74;100286.02;108134;1305;22256;-49
2023/09/05 05:41:32;;;;;;;21.50;6.60;;;;;;;14.99;86.61;100287.36;108150;1305;22170;-49
2023/09/05 05:43:57;;;;;;;12.40;6.20;;;;;;;15.04;86.51;100286.21;108177;1305;22976;-47
2023/09/05 05:46:23;;;;;;;15.70;6.40;;;;;;;15.08;86.40;100284.23;108159;1305;22410;-50
2023/09/05 05:48:48;;;;;;;21.10;8.00;;;;;;;15.11;86.27;100285.29;108137;1305;22869;-45
2023/09/05 05:51:14;;;;;;;22.10;10.20;;;;;;;15.15;85.33;100283.96;108158;1305;22209;-51
2023/09/05 05:53:40;;;;;;;28.50;10.00;;;;;;;15.20;85.38;100284.02;108172;1305;22236;-50
2023/09/05 05:56:08;;;;;;;30.70;11.10;;;;;;;15.26;85.16;100285.98;108186;1305;22990;-49
2023/09/05 05:58:34;;;;;;;23.30;10.50;;;;;;;15.30;84.97;100285.55;108174;1305;22298;-50
2023/09/05 06:01:00;;;;;;;21.00;8.90;;;;;;;15.34;84.68;100288.16;108170;1305;22203;-48
2023/09/05 06:03:25;;;;;;;18.30;7.90;;;;;;;15.40;84.74;100289.09;108157;1305;22209;-49
2023/09/05 06:05:50;;;;;;;18.30;7.00;;;;;;;15.45;84.70;100286.09;108158;1305;22843;-46
2023/09/05 06:08:16;;;;;;;16.10;6.70;;;;;;;15.50;84.79;100286.33;108185;1305;23040;-48
2023/09/05 06:10:42;;;;;;;20.60;6.90;;;;;;;15.55;84.40;100280.74;108181;1305;23019;-48
2023/09/05 06:13:07;;;;;;;14.90;7.00;;;;;;;15.59;84.12;100272.20;108184;1305;22320;-55
2023/09/05 06:15:33;;;;;;;12.00;6.40;;;;;;;15.65;84.26;100275.20;108168;1305;22797;-49
2023/09/05 06:18:02;;;;;;;10.90;5.50;;;;;;;15.69;83.92;100273.17;108190;1283;22379;-43
2023/09/05 06:20:32;;;;;;;10.50;5.40;;;;;;;15.74;83.57;100270.23;108165;1305;22421;-47
2023/09/05 06:22:58;;;;;;;14.90;5.20;;;;;;;15.80;83.56;100269.55;108164;1305;22360;-47
2023/09/05 06:25:24;;;;;;;14.00;5.00;;;;;;;15.85;83.36;100270.30;108181;1305;23105;-46
2023/09/05 06:27:49;;;;;;;10.30;4.10;;;;;;;15.89;82.87;100273.39;108169;1305;22214;-49
2023/09/05 06:30:14;;;;;;;12.80;4.60;;;;;;;15.93;82.03;100265.70;108170;1305;22379;-52
2023/09/05 06:32:40;;;;;;;9.40;3.90;;;;;;;15.99;81.84;100266.40;108144;1305;22218;-47
2023/09/05 06:35:06;;;;;;;13.30;4.60;;;;;;;16.06;81.93;100265.80;108171;1305;22214;-39
2023/09/05 06:37:33;;;;;;;9.30;4.50;;;;;;;16.12;81.71;100267.36;108173;1305;22156;-46
2023/09/05 06:39:59;;;;;;;;;;;;;;;16.18;81.28;100275.70;108180;1305;23083;-49
2023/09/05 06:42:24;;;;;;;9.10;3.70;;;;;;;16.23;80.59;100278.02;108126;1305;22229;-42
2023/09/05 06:44:50;;;;;;;8.20;3.40;;;;;;;16.30;80.43;100272.08;108155;1289;22416;-42
2023/09/05 06:47:15;;;;;;;8.90;3.70;;;;;;;16.38;79.85;100277.79;108113;1305;22213;-44
2023/09/05 06:49:40;;;;;;;13.20;4.50;;;;;;;16.43;79.77;100275.66;108153;1285;22247;-47
2023/09/05 06:52:06;;;;;;;8.10;3.40;;;;;;;16.49;79.05;100278.45;108145;1305;24398;-44
2023/09/05 06:54:31;;;;;;;8.70;3.30;;;;;;;16.55;78.61;100274.39;108186;1305;22422;-44
2023/09/05 06:56:57;;;;;;;10.60;3.50;;;;;;;16.60;77.65;100272.15;108192;1305;24146;-49
2023/09/05 06:59:22;;;;;;;11.90;3.60;;;;;;;16.64;77.10;100276.09;108149;1305;22395;-49
2023/09/05 07:01:47;;;;;;;10.60;4.50;;;;;;;16.69;75.87;100275.27;108136;1298;22271;-50
2023/09/05 07:04:15;;;;;;;18.30;4.40;;;;;;;16.75;76.51;100278.03;108169;1305;22260;-43
2023/09/05 07:06:41;;;;;;;17.10;4.30;;;;;;;16.80;76.89;100278.61;108169;1305;22214;-53
2023/09/05 07:09:06;;;;;;;15.80;4.40;;;;;;;16.85;76.63;100280.80;108202;1304;22456;-44
2023/09/05 07:11:33;;;;;;;11.90;3.70;;;;;;;16.90;76.67;100279.77;108239;1299;23108;-46
2023/09/05 07:13:58;;;;;;;8.10;3.40;;;;;;;16.95;76.43;100282.77;108278;1302;23260;-47
2023/09/05 07:16:24;;;;;;;6.80;3.10;;;;;;;17.00;76.18;100282.83;108287;1304;22224;-43
2023/09/05 07:18:49;;;;;;;8.70;3.20;;;;;;;17.04;75.76;100282.52;108281;1285;22880;-49
2023/09/05 07:21:15;;;;;;;15.00;3.80;;;;;;;17.10;75.11;100286.74;108314;1304;23047;-48
2023/09/05 07:23:40;;;;;;;6.90;3.30;;;;;;;17.17;75.15;100287.38;108286;1304;22682;-49
2023/09/05 07:26:07;;;;;;;5.30;3.10;;;;;;;17.23;75.41;100287.81;108289;1304;22266;-54
2023/09/05 07:28:33;;;;;;;9.50;3.50;;;;;;;17.28;73.73;100287.85;108283;1304;22316;-41
2023/09/05 07:30:58;;;;;;;10.10;3.50;;;;;;;17.35;73.96;100288.46;108298;1304;22885;-47
2023/09/05 07:33:24;;;;;;;9.20;3.60;;;;;;;17.42;74.49;100287.63;108299;1304;22935;-47
2023/09/05 07:35:49;;;;;;;8.20;3.40;;;;;;;17.49;73.29;100284.35;108291;1304;22358;-52
2023/09/05 07:38:15;;;;;;;9.40;3.30;;;;;;;17.56;72.84;100286.51;108316;1304;22637;-46
2023/09/05 07:40:41;;;;;;;16.50;3.50;;;;;;;17.62;73.44;100285.87;108306;1304;22971;-43
2023/09/05 07:43:06;;;;;;;7.70;3.10;;;;;;;17.69;73.65;100284.33;108296;1304;23057;-48
2023/09/05 07:45:33;;;;;;;8.20;3.70;;;;;;;17.76;73.85;100282.98;108301;1304;23023;-46
2023/09/05 07:47:58;;;;;;;6.00;3.00;;;;;;;17.83;73.89;100283.43;108303;1304;23226;-50
2023/09/05 07:50:23;;;;;;;10.10;3.60;;;;;;;17.91;73.09;100286.97;108319;1304;22391;-48
2023/09/05 07:52:49;;;;;;;9.00;3.10;;;;;;;17.98;72.90;100283.09;108294;1304;23010;-49
2023/09/05 07:55:15;;;;;;;7.70;3.40;;;;;;;18.06;72.13;100286.33;108275;1304;22187;-49
2023/09/05 07:57:41;;;;;;;8.40;3.50;;;;;;;18.11;71.17;100289.27;108285;1304;23657;-45
2023/09/05 08:00:08;;;;;;;8.90;3.40;;;;;;;18.20;71.90;100292.55;108305;1304;22389;-43
2023/09/05 08:02:34;;;;;;;9.10;3.70;;;;;;;18.29;71.65;100295.67;108296;1304;22240;-44
2023/09/05 08:04:59;;;;;;;10.40;3.20;;;;;;;18.36;71.84;100297.09;108270;1304;23298;-46
2023/09/05 08:07:25;;;;;;;9.10;2.90;;;;;;;18.43;70.56;100294.45;108257;1304;23060;-51
2023/09/05 08:09:50;;;;;;;5.70;2.80;;;;;;;18.50;70.04;100297.71;108290;1304;22395;-51
2023/09/05 08:12:17;;;;;;;9.70;2.70;;;;;;;18.57;68.81;100298.06;108297;1304;23176;-46
2023/09/05 08:14:43;;;;;;;7.10;2.50;;;;;;;18.65;68.21;100298.76;108288;1304;23265;-46
2023/09/05 08:17:08;;;;;;;10.90;3.00;;;;;;;18.72;67.58;100297.67;108285;1304;23033;-47
2023/09/05 08:19:34;;;;;;;10.30;3.10;;;;;;;18.79;67.77;100298.23;108296;1304;22217;-48
2023/09/05 08:21:59;;;;;;;5.20;2.80;;;;;;;18.85;66.98;100298.06;108296;1304;22395;-52
2023/09/05 08:24:24;;;;;;;7.30;3.30;;;;;;;18.89;65.71;100294.68;108288;1281;22961;-49
2023/09/05 08:26:50;;;;;;;7.50;2.60;;;;;;;18.92;64.31;100292.89;108266;1304;23033;-48
2023/09/05 08:29:15;;;;;;;11.60;3.50;;;;;;;19.00;66.26;100293.37;108284;1304;22119;-47
2023/09/05 08:31:40;;;;;;;7.30;2.80;;;;;;;19.05;66.66;100294.92;108283;1304;22265;-47
2023/09/05 08:34:07;;;;;;;6.40;3.00;;;;;;;19.12;66.92;100293.67;108295;1304;22391;-45
2023/09/05 08:36:32;;;;;;;4.30;2.80;;;;;;;19.17;65.68;100300.02;108277;1304;22975;-45
2023/09/05 08:38:57;;;;;;;6.60;2.70;;;;;;;19.25;65.68;100302.35;108293;1304;22225;-45
2023/09/05 08:41:23;;;;;;;12.20;3.30;;;;;;;19.30;65.21;100302.98;108284;1304;22646;-47
2023/09/05 08:43:48;;;;;;;5.20;3.00;;;;;;;19.38;64.81;100308.60;108286;1304;22367;-50
2023/09/05 08:46:14;;;;;;;5.00;2.60;;;;;;;19.45;64.88;100307.37;108265;1304;22241;-47
2023/09/05 08:48:39;;;;;;;5.20;2.40;;;;;;;19.53;64.33;100308.22;108269;1304;22417;-44
2023/09/05 08:51:07;;;;;;;4.50;2.20;;;;;;;19.63;64.57;100312.27;108286;1304;22207;-50
2023/09/05 08:53:39;;;;;;;11.20;2.80;;;;;;;19.71;63.70;100315.23;108272;1304;22205;-41
2023/09/05 08:56:06;;;;;;;3.20;2.30;;;;;;;19.83;63.71;100311.60;108278;1304;23067;-47
2023/09/05 08:58:33;;;;;;;4.20;2.40;;;;;;;19.96;63.01;100311.32;108316;1304;23075;-50
2023/09/05 09:00:58;;;;;;;5.90;2.40;;;;;;;20.10;62.91;100309.48;108285;1304;22396;-45
2023/09/05 09:03:24;;;;;;;7.30;2.50;;;;;;;20.25;62.38;100301.20;108283;1304;22199;-45
2023/09/05 09:05:49;;;;;;;5.70;2.50;;;;;;;20.37;60.59;100301.20;108278;1304;22999;-42
2023/09/05 09:08:15;;;;;;;9.00;2.50;;;;;;;20.55;60.14;100296.69;108294;1304;22787;-49
2023/09/05 09:10:41;;;;;;;7.10;2.70;;;;;;;20.74;59.02;100293.90;108247;1304;22381;-48
2023/09/05 09:13:15;;;;;;;5.20;2.50;;;;;;;21.01;59.66;100290.98;108289;1304;22368;-42
2023/09/05 09:15:43;;;;;;;4.80;2.30;;;;;;;21.39;57.69;100286.69;108286;1304;22974;-49
2023/09/05 09:18:12;;;;;;;;;;;;;;;21.83;56.96;100284.38;108281;1304;22517;-48
2023/09/05 09:20:44;;;;;;;5.90;2.50;;;;;;;22.34;55.65;100283.89;108277;1304;22295;-46
2023/09/05 09:23:09;;;;;;;7.50;2.50;;;;;;;22.83;55.23;100282.93;108288;1304;22386;-45
2023/09/05 09:25:35;;;;;;;4.60;2.50;;;;;;;23.27;54.29;100277.86;108260;1304;23086;-44
2023/09/05 09:28:00;;;;;;;4.80;2.50;;;;;;;23.63;54.53;100280.58;108290;1304;23056;-51
2023/09/05 09:30:29;;;;;;;3.80;2.30;;;;;;;24.06;53.36;100284.73;108212;1301;22230;-45
2023/09/05 09:32:55;;;;;;;4.80;2.70;;;;;;;24.34;51.52;100278.59;108152;1290;22432;-47
2023/09/05 09:35:21;;;;;;;3.60;2.70;;;;;;;24.66;50.35;100274.25;108161;1298;22719;-42
2023/09/05 09:37:49;;;;;;;3.70;2.20;;;;;;;25.09;48.70;100276.23;108118;1302;22233;-47
2023/09/05 09:40:17;;;;;;;4.90;2.10;;;;;;;25.61;46.78;100277.62;108149;1299;22278;-48
2023/09/05 09:42:47;;;;;;;5.40;2.80;;;;;;;26.08;43.09;100278.38;108128;1300;22545;-47
2023/09/05 09:45:12;;;;;;;4.50;2.20;;;;;;;26.49;40.99;100283.64;108135;1305;23187;-48
2023/09/05 09:47:46;;;;;;;13.20;3.70;;;;;;;26.98;41.76;100285.48;108199;1301;22300;-41
2023/09/05 09:50:12;;;;;;;6.70;2.60;;;;;;;27.37;38.06;100286.69;108168;1299;23112;-46
2023/09/05 09:52:43;;;;;;;3.70;2.00;;;;;;;27.66;36.78;100282.79;108154;1298;22217;-48
2023/09/05 09:55:11;;;;;;;5.90;2.60;;;;;;;27.84;35.09;100284.95;108132;1305;22421;-44
2023/09/05 09:57:44;;;;;;;3.90;2.20;;;;;;;28.23;36.71;100286.44;108193;1301;22398;-50
2023/09/05 10:00:15;;;;;;;4.10;2.10;;;;;;;28.59;35.21;100285.55;108189;1305;22408;-49
2023/09/05 10:02:45;;;;;;;5.60;2.30;;;;;;;28.94;36.15;100286.00;108175;1286;22222;-47
2023/09/05 10:05:12;;;;;;;4.60;2.30;;;;;;;29.20;33.28;100280.78;108195;1298;22946;-46
2023/09/05 10:07:38;;;;;;;7.10;2.20;;;;;;;29.50;34.47;100278.98;108206;1299;23019;-51
2023/09/05 10:10:09;;;;;;;7.50;2.10;;;;;;;29.67;33.76;100275.99;108171;1305;22458;-47
2023/09/05 10:12:36;;;;;;;4.40;2.20;;;;;;;29.65;32.98;100276.91;108166;1302;22231;-53
2023/09/05 10:15:05;;;;;;;2.70;1.90;;;;;;;29.79;33.06;100275.41;108164;1301;22293;-50
2023/09/05 10:17:32;;;;;;;4.10;2.10;;;;;;;29.84;32.84;100271.39;108165;1301;22247;-46
2023/09/05 10:19:58;;;;;;;4.10;2.80;;;;;;;29.79;33.14;100268.60;108175;1305;23129;-51
2023/09/05 10:22:24;;;;;;;4.20;2.30;;;;;;;29.81;32.90;100265.02;108182;1302;22593;-49
2023/09/05 10:24:51;;;;;;;2.20;1.80;;;;;;;29.93;32.48;100259.64;108224;1305;22286;-48
2023/09/05 10:27:16;;;;;;;3.50;2.10;;;;;;;30.06;33.11;100255.30;108184;1305;22973;-45
2023/09/05 10:29:44;;;;;;;5.90;2.40;;;;;;;30.13;31.66;100256.17;108172;1298;22235;-47
2023/09/05 10:32:14;;;;;;;3.50;2.20;;;;;;;30.23;31.66;100256.55;108168;1289;22335;-52
2023/09/05 10:34:45;;;;;;;4.20;2.20;;;;;;;30.36;31.12;100257.85;108180;1302;23318;-49
2023/09/05 10:37:17;;;;;;;5.10;3.10;;;;;;;30.69;30.46;100249.62;108204;1299;22484;-50
2023/09/05 10:39:49;;;;;;;3.30;2.10;;;;;;;30.98;30.42;100249.44;108147;1305;22287;-50
2023/09/05 10:42:16;;;;;;;4.80;2.10;;;;;;;31.32;29.53;100251.45;108161;1304;22434;-47
2023/09/05 10:44:45;;;;;;;3.40;2.50;;;;;;;31.75;29.64;100250.46;108199;1287;22241;-45
2023/09/05 10:47:28;;;;;;;3.60;1.90;;;;;;;32.08;29.22;100250.53;108207;1302;22780;-48
2023/09/05 10:50:02;;;;;;;5.20;2.20;;;;;;;32.17;27.97;100250.95;108155;1305;22213;-44
2023/09/05 10:52:29;;;;;;;2.40;1.60;;;;;;;32.40;28.16;100249.79;108146;1304;22321;-48
2023/09/05 10:54:55;;;;;;;2.70;1.80;;;;;;;32.73;27.45;100243.27;108172;1304;22440;-49
2023/09/05 10:57:37;;;;;;;2.40;2.10;;;;;;;33.03;27.30;100243.36;108213;1299;22426;-49
2023/09/05 11:00:14;;;;;;;6.00;2.10;;;;;;;33.02;26.64;100235.48;108144;1301;22507;-50
2023/09/05 11:02:40;;;;;;;2.30;2.10;;;;;;;33.10;26.99;100228.86;108175;1304;22277;-44
2023/09/05 11:05:11;;;;;;;5.70;2.20;;;;;;;33.14;27.27;100224.70;108187;1283;22246;-46
2023/09/05 11:07:42;;;;;;;5.50;2.20;;;;;;;32.97;26.95;100224.07;108268;1301;22230;-50
2023/09/05 11:10:11;;;;;;;6.90;2.30;;;;;;;32.92;26.67;100222.27;108161;1299;23074;-44
2023/09/05 11:12:38;;;;;;;5.20;2.40;;;;;;;33.32;27.19;100220.96;108183;1299;22893;-50
2023/09/05 11:15:05;;;;;;;4.90;2.00;;;;;;;33.64;26.85;100220.31;108203;1301;22420;-41
2023/09/05 11:17:30;;;;;;;6.30;2.30;;;;;;;33.82;26.14;100217.64;108236;1299;22242;-45
2023/09/05 11:19:56;;;;;;;3.20;2.30;;;;;;;33.77;25.70;100216.27;108172;1305;22419;-52
2023/09/05 11:22:23;;;;;;;2.40;1.90;;;;;;;33.88;25.31;100210.77;108201;1304;22311;-44
2023/09/05 11:24:50;;;;;;;3.20;2.30;;;;;;;34.40;25.52;100205.25;108201;1304;22243;-55
2023/09/05 11:27:26;;;;;;;2.80;2.10;;;;;;;34.87;25.06;100202.42;108220;1299;22387;-49
2023/09/05 11:29:57;;;;;;;;;;;;;;;35.25;23.66;100202.77;108197;1299;22464;-42
2023/09/05 11:32:32;;;;;;;6.80;2.40;;;;;;;35.36;22.53;100202.45;108176;1304;22174;-43
2023/09/05 11:34:58;;;;;;;2.90;2.10;;;;;;;35.70;22.32;100202.09;108230;1299;22973;-48
2023/09/05 11:37:24;;;;;;;3.80;2.10;;;;;;;36.08;21.48;100202.66;108223;1298;22410;-45
2023/09/05 11:39:51;;;;;;;3.30;2.10;;;;;;;36.47;22.43;100200.44;108174;1299;22924;-49
2023/09/05 11:42:30;;;;;;;3.10;2.40;;;;;;;36.79;21.49;100197.08;108178;1304;22226;-54
2023/09/05 11:44:57;;;;;;;4.60;2.30;;;;;;;37.14;21.41;100198.53;108234;1304;22272;-49
2023/09/05 11:47:24;;;;;;;4.70;1.90;;;;;;;37.51;21.16;100197.23;108215;1299;23595;-50
2023/09/05 11:49:51;;;;;;;4.30;1.90;;;;;;;37.66;20.32;100195.14;108191;1301;23179;-44
2023/09/05 11:52:18;;;;;;;5.60;2.50;;;;;;;37.89;20.39;100196.92;108177;1304;22487;-43
2023/09/05 11:54:44;;;;;;;6.30;2.60;;;;;;;37.87;19.82;100194.47;108249;1299;22327;-44
2023/09/05 11:57:10;;;;;;;2.80;2.30;;;;;;;37.88;19.84;100188.29;108193;1298;22216;-47
2023/09/05 11:59:38;;;;;;;2.30;1.70;;;;;;;38.00;19.86;100187.27;108162;1302;22128;-47
2023/09/05 12:02:08;;;;;;;4.50;2.40;;;;;;;38.31;19.70;100187.71;108189;1305;22231;-49
2023/09/05 12:04:35;;;;;;;2.90;2.20;;;;;;;38.61;19.71;100182.13;108184;1298;22215;-47
2023/09/05 12:07:03;;;;;;;2.40;2.10;;;;;;;38.90;19.62;100179.52;108212;1298;22980;-45
2023/09/05 12:09:29;;;;;;;7.40;2.60;;;;;;;38.93;19.04;100180.02;108208;1304;22338;-46
2023/09/05 12:12:07;;;;;;;2.90;2.10;;;;;;;38.93;18.55;100176.27;108173;1298;22954;-51
2023/09/05 12:14:46;;;;;;;3.20;2.00;;;;;;;38.98;19.44;100171.07;108171;1292;22368;-50
2023/09/05 12:17:15;;;;;;;5.50;1.90;;;;;;;38.92;18.46;100165.80;108181;1305;22229;-44
2023/09/05 12:19:40;;;;;;;2.00;1.70;;;;;;;39.02;18.16;100163.56;108173;1283;22338;-48
2023/09/05 12:22:05;;;;;;;6.10;2.70;;;;;;;39.11;18.04;100161.61;108186;1301;22366;-46
2023/09/05 12:24:31;;;;;;;5.80;2.40;;;;;;;39.37;18.31;100158.91;108249;1298;23158;-51
2023/09/05 12:26:59;;;;;;;;;;;;;;;39.55;17.44;100159.16;108200;1298;22408;-43
2023/09/05 12:29:40;;;;;;;11.80;2.60;;;;;;;39.78;17.50;100160.48;108216;1304;22433;-50
2023/09/05 12:32:06;;;;;;;5.10;2.20;;;;;;;39.93;17.17;100162.45;108284;1304;22350;-47
2023/09/05 12:34:31;;;;;;;2.20;1.80;;;;;;;39.94;16.81;100156.90;108271;1304;22987;-42
2023/09/05 12:36:57;;;;;;;2.80;1.90;;;;;;;39.96;17.34;100157.77;108184;1290;22233;-43
2023/09/05 12:39:22;;;;;;;2.60;2.10;;;;;;;39.96;16.99;100153.11;108219;1304;23114;-43
2023/09/05 12:41:48;;;;;;;2.60;2.30;;;;;;;40.15;17.12;100153.42;108156;1305;22485;-48
2023/09/05 12:44:15;;;;;;;4.60;2.50;;;;;;;40.14;17.20;100151.77;108256;1304;22396;-51
2023/09/05 12:46:41;;;;;;;5.10;2.20;;;;;;;40.16;17.01;100149.14;108183;1298;22238;-49
2023/09/05 12:49:06;;;;;;;6.40;2.10;;;;;;;40.20;16.69;100146.69;108039;1304;22305;-46
2023/09/05 12:51:33;;;;;;;4.00;3.30;;;;;;;40.28;16.97;100140.67;108194;1291;22247;-46
2023/09/05 12:54:00;;;;;;;6.90;2.30;;;;;;;40.09;16.01;100133.98;108261;1298;23027;-50
2023/09/05 12:56:26;;;;;;;4.90;2.40;;;;;;;39.96;16.57;100134.94;108182;1298;23032;-46
2023/09/05 12:58:51;;;;;;;4.40;2.40;;;;;;;40.07;17.04;100134.89;108221;1298;22224;-46
2023/09/05 13:01:18;;;;;;;7.20;2.30;;;;;;;40.21;16.55;100135.91;108171;1305;22247;-47
2023/09/05 13:03:46;;;;;;;3.60;2.20;;;;;;;40.20;16.70;100135.29;108233;1304;22246;-52
2023/09/05 13:06:11;;;;;;;5.00;2.40;;;;;;;40.26;16.41;100139.33;108170;1300;22341;-48
2023/09/05 13:08:37;;;;;;;3.20;1.90;;;;;;;40.25;15.29;100138.20;108168;1298;22354;-47
2023/09/05 13:11:02;;;;;;;2.80;2.10;;;;;;;40.32;15.51;100133.88;108149;1305;22380;-44
2023/09/05 13:13:27;;;;;;;;;;;;;;;40.25;15.24;100130.98;107911;1301;22449;-48
2023/09/05 13:15:53;;;;;;;2.90;1.80;;;;;;;40.02;15.44;100122.11;108181;1301;22976;-48
2023/09/05 13:18:18;;;;;;;3.60;2.50;;;;;;;39.95;16.16;100116.85;108205;1298;22230;-46
2023/09/05 13:20:43;;;;;;;4.90;2.90;;;;;;;39.85;15.61;100108.30;108161;1302;23071;-48
2023/09/05 13:23:09;;;;;;;7.30;2.90;;;;;;;39.70;16.66;100106.89;108205;1302;22906;-56
2023/09/05 13:25:36;;;;;;;2.50;1.90;;;;;;;39.44;16.02;100106.86;108224;1305;22102;-47
2023/09/05 13:28:04;;;;;;;7.70;2.60;;;;;;;39.07;16.56;100101.02;108180;1304;22413;-46
2023/09/05 13:30:30;;;;;;;8.10;2.20;;;;;;;38.12;17.59;100094.44;108175;1301;22293;-44
2023/09/05 13:32:55;;;;;;;4.60;2.60;;;;;;;36.99;17.63;100087.33;108227;1298;22366;-47
2023/09/05 13:35:21;;;;;;;7.50;2.50;;;;;;;36.02;19.86;100088.83;108254;1304;22965;-46
2023/09/05 13:37:46;;;;;;;4.20;2.00;;;;;;;35.25;20.48;100085.98;108174;1298;22854;-47
2023/09/05 13:40:12;;;;;;;5.20;2.40;;;;;;;34.49;20.03;100087.17;108197;1299;22355;-46
2023/09/05 13:42:37;;;;;;;5.10;2.10;;;;;;;33.72;21.32;100078.73;108157;1305;22415;-54
2023/09/05 13:45:03;;;;;;;2.70;2.20;;;;;;;33.22;23.13;100074.34;108197;1302;22245;-46
2023/09/05 13:47:28;;;;;;;3.30;2.30;;;;;;;32.70;23.21;100067.30;108183;1305;23150;-51
2023/09/05 13:49:55;;;;;;;9.10;2.70;;;;;;;32.35;22.49;100069.30;108172;1298;22213;-55
2023/09/05 13:52:20;;;;;;;;;;;;;;;31.84;22.42;100064.28;108152;1298;22435;-51
2023/09/05 13:54:45;;;;;;;2.30;1.90;;;;;;;31.29;22.47;100066.13;108176;1304;22209;-50